sensor_id;sensor_type;location;lat;lon;timestamp;P1;durP1;ratioP1;P2;durP2;ratioP2
65658;SDS011;60181;53.258;6.932;2023-05-16T00:01:20;15.10;;;2.50;;
65658;SDS011;60181;53.258;6.932;2023-05-16T00:05:23;15.10;;;2.50;;
65658;SDS011;60181;53.258;6.932;2023-05-16T00:09:27;19.20;;;2.40;;
65658;SDS011;60181;53.258;6.932;2023-05-16T00:13:31;19.20;;;2.40;;
65658;SDS011;60181;53.258;6.932;2023-05-16T00:17:35;16.90;;;2.60;;
65658;SDS011;60181;53.258;6.932;2023-05-16T00:21:39;16.90;;;2.60;;
65658;SDS011;60181;53.258;6.932;2023-05-16T00:25:43;16.90;;;2.60;;
65658;SDS011;60181;53.258;6.932;2023-05-16T00:29:47;14.30;;;2.10;;
65658;SDS011;60181;53.258;6.932;2023-05-16T00:33:51;14.30;;;2.10;;
65658;SDS011;60181;53.258;6.932;2023-05-16T00:37:55;15.20;;;2.10;;
65658;SDS011;60181;53.258;6.932;2023-05-16T00:41:59;15.20;;;2.10;;
65658;SDS011;60181;53.258;6.932;2023-05-16T00:46:03;15.20;;;2.10;;
65658;SDS011;60181;53.258;6.932;2023-05-16T00:50:08;16.90;;;2.00;;
65658;SDS011;60181;53.258;6.932;2023-05-16T00:54:11;16.90;;;2.00;;
65658;SDS011;60181;53.258;6.932;2023-05-16T00:58:15;14.60;;;2.10;;
65658;SDS011;60181;53.258;6.932;2023-05-16T01:02:19;14.60;;;2.10;;
65658;SDS011;60181;53.258;6.932;2023-05-16T01:06:23;14.60;;;2.10;;
65658;SDS011;60181;53.258;6.932;2023-05-16T01:10:31;13.70;;;1.90;;
65658;SDS011;60181;53.258;6.932;2023-05-16T01:14:40;13.70;;;1.90;;
65658;SDS011;60181;53.258;6.932;2023-05-16T01:26:43;12.00;;;1.70;;
65658;SDS011;60181;53.258;6.932;2023-05-16T01:30:47;14.10;;;1.80;;
65658;SDS011;60181;53.258;6.932;2023-05-16T01:34:51;14.10;;;1.80;;
65658;SDS011;60181;53.258;6.932;2023-05-16T01:39:00;18.00;;;2.20;;
65658;SDS011;60181;53.258;6.932;2023-05-16T01:42:59;18.00;;;2.20;;
65658;SDS011;60181;53.258;6.932;2023-05-16T01:47:07;18.00;;;2.20;;
65658;SDS011;60181;53.258;6.932;2023-05-16T01:51:07;12.20;;;1.80;;
65658;SDS011;60181;53.258;6.932;2023-05-16T01:55:24;12.20;;;1.80;;
65658;SDS011;60181;53.258;6.932;2023-05-16T01:59:15;17.70;;;2.00;;
65658;SDS011;60181;53.258;6.932;2023-05-16T02:03:19;17.70;;;2.00;;
65658;SDS011;60181;53.258;6.932;2023-05-16T02:07:23;17.70;;;2.00;;
65658;SDS011;60181;53.258;6.932;2023-05-16T02:11:27;14.70;;;1.60;;
65658;SDS011;60181;53.258;6.932;2023-05-16T02:15:31;14.70;;;1.60;;
65658;SDS011;60181;53.258;6.932;2023-05-16T02:19:35;11.60;;;1.80;;
65658;SDS011;60181;53.258;6.932;2023-05-16T02:23:39;11.60;;;1.80;;
65658;SDS011;60181;53.258;6.932;2023-05-16T02:27:43;14.30;;;1.90;;
65658;SDS011;60181;53.258;6.932;2023-05-16T02:31:47;14.30;;;1.90;;
65658;SDS011;60181;53.258;6.932;2023-05-16T02:35:51;14.30;;;1.90;;
65658;SDS011;60181;53.258;6.932;2023-05-16T02:39:55;15.10;;;2.00;;
65658;SDS011;60181;53.258;6.932;2023-05-16T02:43:59;15.10;;;2.00;;
65658;SDS011;60181;53.258;6.932;2023-05-16T02:48:03;9.40;;;1.60;;
65658;SDS011;60181;53.258;6.932;2023-05-16T02:52:07;9.40;;;1.60;;
65658;SDS011;60181;53.258;6.932;2023-05-16T02:56:11;9.40;;;1.60;;
65658;SDS011;60181;53.258;6.932;2023-05-16T03:00:15;11.10;;;1.80;;
65658;SDS011;60181;53.258;6.932;2023-05-16T03:04:19;11.10;;;1.80;;
65658;SDS011;60181;53.258;6.932;2023-05-16T03:08:23;15.10;;;1.80;;
65658;SDS011;60181;53.258;6.932;2023-05-16T03:12:27;15.10;;;1.80;;
65658;SDS011;60181;53.258;6.932;2023-05-16T03:16:31;15.10;;;1.80;;
65658;SDS011;60181;53.258;6.932;2023-05-16T03:20:35;14.20;;;1.70;;
65658;SDS011;60181;53.258;6.932;2023-05-16T03:24:39;14.20;;;1.70;;
65658;SDS011;60181;53.258;6.932;2023-05-16T03:28:43;11.90;;;1.60;;
65658;SDS011;60181;53.258;6.932;2023-05-16T03:32:47;11.90;;;1.60;;
65658;SDS011;60181;53.258;6.932;2023-05-16T03:36:51;11.90;;;1.60;;
65658;SDS011;60181;53.258;6.932;2023-05-16T03:40:55;12.00;;;1.80;;
65658;SDS011;60181;53.258;6.932;2023-05-16T03:44:59;12.00;;;1.80;;
65658;SDS011;60181;53.258;6.932;2023-05-16T03:49:03;8.70;;;1.60;;
65658;SDS011;60181;53.258;6.932;2023-05-16T03:53:08;8.70;;;1.60;;
65658;SDS011;60181;53.258;6.932;2023-05-16T03:57:11;8.70;;;1.60;;
65658;SDS011;60181;53.258;6.932;2023-05-16T04:01:15;12.60;;;1.80;;
65658;SDS011;60181;53.258;6.932;2023-05-16T04:05:19;12.60;;;1.80;;
65658;SDS011;60181;53.258;6.932;2023-05-16T04:09:23;12.60;;;1.40;;
65658;SDS011;60181;53.258;6.932;2023-05-16T04:13:27;12.60;;;1.40;;
65658;SDS011;60181;53.258;6.932;2023-05-16T04:17:31;22.60;;;2.00;;
65658;SDS011;60181;53.258;6.932;2023-05-16T04:21:35;22.60;;;2.00;;
65658;SDS011;60181;53.258;6.932;2023-05-16T04:25:39;22.60;;;2.00;;
65658;SDS011;60181;53.258;6.932;2023-05-16T04:29:43;13.30;;;2.00;;
65658;SDS011;60181;53.258;6.932;2023-05-16T04:33:47;13.30;;;2.00;;
65658;SDS011;60181;53.258;6.932;2023-05-16T04:37:51;15.30;;;1.80;;
65658;SDS011;60181;53.258;6.932;2023-05-16T04:41:55;15.30;;;1.80;;
65658;SDS011;60181;53.258;6.932;2023-05-16T04:45:59;15.30;;;1.80;;
65658;SDS011;60181;53.258;6.932;2023-05-16T04:50:03;11.00;;;1.80;;
65658;SDS011;60181;53.258;6.932;2023-05-16T04:54:07;11.00;;;1.80;;
65658;SDS011;60181;53.258;6.932;2023-05-16T04:58:11;10.00;;;1.50;;
65658;SDS011;60181;53.258;6.932;2023-05-16T05:02:15;10.00;;;1.50;;
65658;SDS011;60181;53.258;6.932;2023-05-16T05:06:19;10.00;;;1.50;;
65658;SDS011;60181;53.258;6.932;2023-05-16T05:10:23;9.10;;;1.70;;
65658;SDS011;60181;53.258;6.932;2023-05-16T05:14:27;9.10;;;1.70;;
65658;SDS011;60181;53.258;6.932;2023-05-16T05:18:31;9.30;;;1.60;;
65658;SDS011;60181;53.258;6.932;2023-05-16T05:22:35;9.30;;;1.60;;
65658;SDS011;60181;53.258;6.932;2023-05-16T05:26:39;9.30;;;1.60;;
65658;SDS011;60181;53.258;6.932;2023-05-16T05:30:43;6.50;;;1.40;;
65658;SDS011;60181;53.258;6.932;2023-05-16T05:34:47;6.50;;;1.40;;
65658;SDS011;60181;53.258;6.932;2023-05-16T05:38:51;8.20;;;1.40;;
65658;SDS011;60181;53.258;6.932;2023-05-16T05:42:55;8.20;;;1.40;;
65658;SDS011;60181;53.258;6.932;2023-05-16T05:46:59;8.20;;;1.40;;
65658;SDS011;60181;53.258;6.932;2023-05-16T05:51:03;6.30;;;1.50;;
65658;SDS011;60181;53.258;6.932;2023-05-16T05:55:07;6.30;;;1.50;;
65658;SDS011;60181;53.258;6.932;2023-05-16T05:59:11;5.30;;;1.30;;
65658;SDS011;60181;53.258;6.932;2023-05-16T06:03:15;5.30;;;1.30;;
65658;SDS011;60181;53.258;6.932;2023-05-16T06:07:19;5.30;;;1.30;;
65658;SDS011;60181;53.258;6.932;2023-05-16T06:11:23;4.90;;;1.30;;
65658;SDS011;60181;53.258;6.932;2023-05-16T06:15:27;4.90;;;1.30;;
65658;SDS011;60181;53.258;6.932;2023-05-16T06:19:31;6.40;;;1.30;;
65658;SDS011;60181;53.258;6.932;2023-05-16T06:23:35;6.40;;;1.30;;
65658;SDS011;60181;53.258;6.932;2023-05-16T06:27:39;7.60;;;1.40;;
65658;SDS011;60181;53.258;6.932;2023-05-16T06:31:43;7.60;;;1.40;;
65658;SDS011;60181;53.258;6.932;2023-05-16T06:35:47;7.60;;;1.40;;
65658;SDS011;60181;53.258;6.932;2023-05-16T06:39:51;7.10;;;1.30;;
65658;SDS011;60181;53.258;6.932;2023-05-16T06:43:55;7.10;;;1.30;;
65658;SDS011;60181;53.258;6.932;2023-05-16T06:47:59;4.80;;;1.30;;
65658;SDS011;60181;53.258;6.932;2023-05-16T06:52:03;4.80;;;1.30;;
65658;SDS011;60181;53.258;6.932;2023-05-16T06:56:07;4.80;;;1.30;;
65658;SDS011;60181;53.258;6.932;2023-05-16T07:00:11;4.40;;;1.30;;
65658;SDS011;60181;53.258;6.932;2023-05-16T07:04:15;4.40;;;1.30;;
65658;SDS011;60181;53.258;6.932;2023-05-16T07:08:19;9.70;;;1.80;;
65658;SDS011;60181;53.258;6.932;2023-05-16T07:12:23;9.70;;;1.80;;
65658;SDS011;60181;53.258;6.932;2023-05-16T07:16:27;9.70;;;1.80;;
65658;SDS011;60181;53.258;6.932;2023-05-16T07:20:31;6.40;;;1.70;;
65658;SDS011;60181;53.258;6.932;2023-05-16T07:24:35;6.40;;;1.70;;
65658;SDS011;60181;53.258;6.932;2023-05-16T07:28:39;11.80;;;2.00;;
65658;SDS011;60181;53.258;6.932;2023-05-16T07:32:43;11.80;;;2.00;;
65658;SDS011;60181;53.258;6.932;2023-05-16T07:36:47;11.80;;;2.00;;
65658;SDS011;60181;53.258;6.932;2023-05-16T07:40:51;9.00;;;1.80;;
65658;SDS011;60181;53.258;6.932;2023-05-16T07:44:55;9.00;;;1.80;;
65658;SDS011;60181;53.258;6.932;2023-05-16T07:48:59;8.50;;;1.70;;
65658;SDS011;60181;53.258;6.932;2023-05-16T07:53:03;8.50;;;1.70;;
65658;SDS011;60181;53.258;6.932;2023-05-16T07:57:07;8.50;;;1.70;;
65658;SDS011;60181;53.258;6.932;2023-05-16T08:01:11;8.40;;;1.70;;
65658;SDS011;60181;53.258;6.932;2023-05-16T08:05:15;8.40;;;1.70;;
65658;SDS011;60181;53.258;6.932;2023-05-16T08:09:19;5.80;;;1.70;;
65658;SDS011;60181;53.258;6.932;2023-05-16T08:13:23;5.80;;;1.70;;
65658;SDS011;60181;53.258;6.932;2023-05-16T08:17:27;6.00;;;1.60;;
65658;SDS011;60181;53.258;6.932;2023-05-16T08:21:31;6.00;;;1.60;;
65658;SDS011;60181;53.258;6.932;2023-05-16T08:25:35;6.00;;;1.60;;
65658;SDS011;60181;53.258;6.932;2023-05-16T08:29:39;5.00;;;1.50;;
65658;SDS011;60181;53.258;6.932;2023-05-16T08:33:43;5.00;;;1.50;;
65658;SDS011;60181;53.258;6.932;2023-05-16T08:37:47;4.80;;;1.50;;
65658;SDS011;60181;53.258;6.932;2023-05-16T08:41:51;4.80;;;1.50;;
65658;SDS011;60181;53.258;6.932;2023-05-16T08:45:55;4.80;;;1.50;;
65658;SDS011;60181;53.258;6.932;2023-05-16T08:49:59;4.90;;;1.70;;
65658;SDS011;60181;53.258;6.932;2023-05-16T08:54:03;4.90;;;1.70;;
65658;SDS011;60181;53.258;6.932;2023-05-16T08:58:07;6.90;;;1.90;;
65658;SDS011;60181;53.258;6.932;2023-05-16T09:02:11;6.90;;;1.90;;
65658;SDS011;60181;53.258;6.932;2023-05-16T09:06:15;6.90;;;1.90;;
65658;SDS011;60181;53.258;6.932;2023-05-16T09:10:19;9.50;;;2.10;;
65658;SDS011;60181;53.258;6.932;2023-05-16T09:14:23;9.50;;;2.10;;
65658;SDS011;60181;53.258;6.932;2023-05-16T09:18:27;5.90;;;1.80;;
65658;SDS011;60181;53.258;6.932;2023-05-16T09:22:31;5.90;;;1.80;;
65658;SDS011;60181;53.258;6.932;2023-05-16T09:26:35;5.90;;;1.80;;
65658;SDS011;60181;53.258;6.932;2023-05-16T09:30:39;6.80;;;2.70;;
65658;SDS011;60181;53.258;6.932;2023-05-16T09:34:43;6.80;;;2.70;;
65658;SDS011;60181;53.258;6.932;2023-05-16T09:38:48;7.70;;;2.80;;
65658;SDS011;60181;53.258;6.932;2023-05-16T09:43:03;7.70;;;2.80;;
65658;SDS011;60181;53.258;6.932;2023-05-16T09:46:55;7.70;;;2.80;;
65658;SDS011;60181;53.258;6.932;2023-05-16T09:50:59;10.20;;;4.00;;
65658;SDS011;60181;53.258;6.932;2023-05-16T09:55:05;10.20;;;4.00;;
65658;SDS011;60181;53.258;6.932;2023-05-16T09:59:09;10.70;;;4.20;;
65658;SDS011;60181;53.258;6.932;2023-05-16T10:03:11;10.70;;;4.20;;
65658;SDS011;60181;53.258;6.932;2023-05-16T10:07:15;10.70;;;4.20;;
65658;SDS011;60181;53.258;6.932;2023-05-16T10:11:19;6.50;;;2.80;;
65658;SDS011;60181;53.258;6.932;2023-05-16T10:15:23;6.50;;;2.80;;
65658;SDS011;60181;53.258;6.932;2023-05-16T10:19:27;8.00;;;2.90;;
65658;SDS011;60181;53.258;6.932;2023-05-16T10:23:31;8.00;;;2.90;;
65658;SDS011;60181;53.258;6.932;2023-05-16T10:27:35;6.70;;;2.90;;
65658;SDS011;60181;53.258;6.932;2023-05-16T10:31:39;6.70;;;2.90;;
65658;SDS011;60181;53.258;6.932;2023-05-16T10:35:43;6.70;;;2.90;;
65658;SDS011;60181;53.258;6.932;2023-05-16T10:39:46;7.60;;;3.00;;
65658;SDS011;60181;53.258;6.932;2023-05-16T10:43:56;7.60;;;3.00;;
65658;SDS011;60181;53.258;6.932;2023-05-16T10:47:55;10.70;;;2.90;;
65658;SDS011;60181;53.258;6.932;2023-05-16T10:52:02;10.70;;;2.90;;
65658;SDS011;60181;53.258;6.932;2023-05-16T10:56:06;10.70;;;2.90;;
65658;SDS011;60181;53.258;6.932;2023-05-16T11:00:07;7.70;;;2.90;;
65658;SDS011;60181;53.258;6.932;2023-05-16T11:04:10;7.70;;;2.90;;
65658;SDS011;60181;53.258;6.932;2023-05-16T11:08:14;7.70;;;2.70;;
65658;SDS011;60181;53.258;6.932;2023-05-16T11:12:19;7.70;;;2.70;;
65658;SDS011;60181;53.258;6.932;2023-05-16T11:16:25;7.70;;;2.70;;
65658;SDS011;60181;53.258;6.932;2023-05-16T11:20:29;7.50;;;2.90;;
65658;SDS011;60181;53.258;6.932;2023-05-16T11:24:31;7.50;;;2.90;;
65658;SDS011;60181;53.258;6.932;2023-05-16T11:28:34;10.30;;;3.10;;
65658;SDS011;60181;53.258;6.932;2023-05-16T11:32:39;10.30;;;3.10;;
65658;SDS011;60181;53.258;6.932;2023-05-16T11:36:42;10.30;;;3.10;;
65658;SDS011;60181;53.258;6.932;2023-05-16T11:40:46;8.30;;;3.00;;
65658;SDS011;60181;53.258;6.932;2023-05-16T11:45:02;8.30;;;3.00;;
65658;SDS011;60181;53.258;6.932;2023-05-16T11:48:54;6.90;;;3.20;;
65658;SDS011;60181;53.258;6.932;2023-05-16T11:52:58;6.90;;;3.20;;
65658;SDS011;60181;53.258;6.932;2023-05-16T11:57:03;6.90;;;3.20;;
65658;SDS011;60181;53.258;6.932;2023-05-16T12:01:06;7.30;;;3.20;;
65658;SDS011;60181;53.258;6.932;2023-05-16T12:05:11;7.30;;;3.20;;
65658;SDS011;60181;53.258;6.932;2023-05-16T12:09:14;9.80;;;3.60;;
65658;SDS011;60181;53.258;6.932;2023-05-16T12:13:19;9.80;;;3.60;;
65658;SDS011;60181;53.258;6.932;2023-05-16T12:17:22;9.80;;;3.60;;
65658;SDS011;60181;53.258;6.932;2023-05-16T12:21:26;11.40;;;3.70;;
65658;SDS011;60181;53.258;6.932;2023-05-16T12:25:31;11.40;;;3.70;;
65658;SDS011;60181;53.258;6.932;2023-05-16T12:29:34;8.20;;;3.40;;
65658;SDS011;60181;53.258;6.932;2023-05-16T12:33:38;8.20;;;3.40;;
65658;SDS011;60181;53.258;6.932;2023-05-16T12:37:42;8.20;;;3.30;;
65658;SDS011;60181;53.258;6.932;2023-05-16T12:41:46;8.20;;;3.30;;
65658;SDS011;60181;53.258;6.932;2023-05-16T12:45:54;8.20;;;3.30;;
65658;SDS011;60181;53.258;6.932;2023-05-16T12:49:54;11.80;;;3.50;;
65658;SDS011;60181;53.258;6.932;2023-05-16T12:54:07;11.80;;;3.50;;
65658;SDS011;60181;53.258;6.932;2023-05-16T12:58:02;9.00;;;3.40;;
65658;SDS011;60181;53.258;6.932;2023-05-16T13:02:06;9.00;;;3.40;;
65658;SDS011;60181;53.258;6.932;2023-05-16T13:06:10;9.00;;;3.40;;
65658;SDS011;60181;53.258;6.932;2023-05-16T13:10:14;7.90;;;3.50;;
65658;SDS011;60181;53.258;6.932;2023-05-16T13:14:18;7.90;;;3.50;;
65658;SDS011;60181;53.258;6.932;2023-05-16T13:18:22;9.40;;;3.40;;
65658;SDS011;60181;53.258;6.932;2023-05-16T13:22:26;9.40;;;3.40;;
65658;SDS011;60181;53.258;6.932;2023-05-16T13:26:30;9.40;;;3.40;;
65658;SDS011;60181;53.258;6.932;2023-05-16T13:30:34;9.50;;;3.60;;
65658;SDS011;60181;53.258;6.932;2023-05-16T13:34:38;9.50;;;3.60;;
65658;SDS011;60181;53.258;6.932;2023-05-16T13:38:42;8.90;;;3.70;;
65658;SDS011;60181;53.258;6.932;2023-05-16T13:42:46;8.90;;;3.70;;
65658;SDS011;60181;53.258;6.932;2023-05-16T13:46:50;8.90;;;3.70;;
65658;SDS011;60181;53.258;6.932;2023-05-16T13:50:54;9.10;;;3.90;;
65658;SDS011;60181;53.258;6.932;2023-05-16T13:54:58;9.10;;;3.90;;
65658;SDS011;60181;53.258;6.932;2023-05-16T13:59:02;10.70;;;3.90;;
65658;SDS011;60181;53.258;6.932;2023-05-16T14:03:06;10.70;;;3.90;;
65658;SDS011;60181;53.258;6.932;2023-05-16T14:07:10;10.70;;;3.90;;
65658;SDS011;60181;53.258;6.932;2023-05-16T14:11:14;8.50;;;3.70;;
65658;SDS011;60181;53.258;6.932;2023-05-16T14:15:18;8.50;;;3.70;;
65658;SDS011;60181;53.258;6.932;2023-05-16T14:19:22;8.80;;;3.80;;
65658;SDS011;60181;53.258;6.932;2023-05-16T14:23:26;8.80;;;3.80;;
65658;SDS011;60181;53.258;6.932;2023-05-16T14:27:30;7.60;;;3.60;;
65658;SDS011;60181;53.258;6.932;2023-05-16T14:31:34;7.60;;;3.60;;
65658;SDS011;60181;53.258;6.932;2023-05-16T14:35:38;7.60;;;3.60;;
65658;SDS011;60181;53.258;6.932;2023-05-16T14:39:43;8.10;;;3.50;;
65658;SDS011;60181;53.258;6.932;2023-05-16T14:43:46;8.10;;;3.50;;
65658;SDS011;60181;53.258;6.932;2023-05-16T14:47:50;8.60;;;3.70;;
65658;SDS011;60181;53.258;6.932;2023-05-16T14:51:54;8.60;;;3.70;;
65658;SDS011;60181;53.258;6.932;2023-05-16T14:55:58;8.60;;;3.70;;
65658;SDS011;60181;53.258;6.932;2023-05-16T15:00:02;8.40;;;3.70;;
65658;SDS011;60181;53.258;6.932;2023-05-16T15:04:06;8.40;;;3.70;;
65658;SDS011;60181;53.258;6.932;2023-05-16T15:08:10;8.10;;;3.70;;
65658;SDS011;60181;53.258;6.932;2023-05-16T15:12:14;8.10;;;3.70;;
65658;SDS011;60181;53.258;6.932;2023-05-16T15:16:18;8.10;;;3.70;;
65658;SDS011;60181;53.258;6.932;2023-05-16T15:20:22;8.40;;;3.50;;
65658;SDS011;60181;53.258;6.932;2023-05-16T15:24:26;8.40;;;3.50;;
65658;SDS011;60181;53.258;6.932;2023-05-16T15:28:30;8.40;;;3.70;;
65658;SDS011;60181;53.258;6.932;2023-05-16T15:32:34;8.40;;;3.70;;
65658;SDS011;60181;53.258;6.932;2023-05-16T15:36:38;8.40;;;3.70;;
65658;SDS011;60181;53.258;6.932;2023-05-16T15:40:42;10.90;;;4.20;;
65658;SDS011;60181;53.258;6.932;2023-05-16T15:44:46;10.90;;;4.20;;
65658;SDS011;60181;53.258;6.932;2023-05-16T15:48:50;7.70;;;4.20;;
65658;SDS011;60181;53.258;6.932;2023-05-16T15:52:54;7.70;;;4.20;;
65658;SDS011;60181;53.258;6.932;2023-05-16T15:56:58;7.70;;;4.20;;
65658;SDS011;60181;53.258;6.932;2023-05-16T16:01:02;8.10;;;3.90;;
65658;SDS011;60181;53.258;6.932;2023-05-16T16:05:07;8.10;;;3.90;;
65658;SDS011;60181;53.258;6.932;2023-05-16T16:09:10;7.00;;;3.60;;
65658;SDS011;60181;53.258;6.932;2023-05-16T16:13:14;7.00;;;3.60;;
65658;SDS011;60181;53.258;6.932;2023-05-16T16:17:18;7.00;;;3.60;;
65658;SDS011;60181;53.258;6.932;2023-05-16T16:21:22;8.60;;;4.40;;
65658;SDS011;60181;53.258;6.932;2023-05-16T16:25:26;8.60;;;4.40;;
65658;SDS011;60181;53.258;6.932;2023-05-16T16:29:30;8.30;;;3.80;;
65658;SDS011;60181;53.258;6.932;2023-05-16T16:33:34;8.30;;;3.80;;
65658;SDS011;60181;53.258;6.932;2023-05-16T16:37:38;7.70;;;3.80;;
65658;SDS011;60181;53.258;6.932;2023-05-16T16:41:42;7.70;;;3.80;;
65658;SDS011;60181;53.258;6.932;2023-05-16T16:45:46;7.70;;;3.80;;
65658;SDS011;60181;53.258;6.932;2023-05-16T16:49:50;10.40;;;4.10;;
65658;SDS011;60181;53.258;6.932;2023-05-16T16:53:54;10.40;;;4.10;;
65658;SDS011;60181;53.258;6.932;2023-05-16T16:57:59;7.40;;;3.70;;
65658;SDS011;60181;53.258;6.932;2023-05-16T17:02:02;7.40;;;3.70;;
65658;SDS011;60181;53.258;6.932;2023-05-16T17:06:06;7.40;;;3.70;;
65658;SDS011;60181;53.258;6.932;2023-05-16T17:10:10;7.30;;;3.70;;
65658;SDS011;60181;53.258;6.932;2023-05-16T17:14:14;7.30;;;3.70;;
65658;SDS011;60181;53.258;6.932;2023-05-16T17:18:18;7.70;;;4.10;;
65658;SDS011;60181;53.258;6.932;2023-05-16T17:22:22;7.70;;;4.10;;
65658;SDS011;60181;53.258;6.932;2023-05-16T17:26:26;7.70;;;4.10;;
65658;SDS011;60181;53.258;6.932;2023-05-16T17:30:30;8.70;;;4.30;;
65658;SDS011;60181;53.258;6.932;2023-05-16T17:34:34;8.70;;;4.30;;
65658;SDS011;60181;53.258;6.932;2023-05-16T17:38:38;11.00;;;4.30;;
65658;SDS011;60181;53.258;6.932;2023-05-16T17:42:42;11.00;;;4.30;;
65658;SDS011;60181;53.258;6.932;2023-05-16T17:46:46;11.00;;;4.30;;
65658;SDS011;60181;53.258;6.932;2023-05-16T17:50:50;8.60;;;4.30;;
65658;SDS011;60181;53.258;6.932;2023-05-16T17:54:54;8.60;;;4.30;;
65658;SDS011;60181;53.258;6.932;2023-05-16T17:58:58;10.80;;;4.80;;
65658;SDS011;60181;53.258;6.932;2023-05-16T18:03:02;10.80;;;4.80;;
65658;SDS011;60181;53.258;6.932;2023-05-16T18:07:06;10.80;;;4.80;;
65658;SDS011;60181;53.258;6.932;2023-05-16T18:11:10;7.60;;;3.80;;
65658;SDS011;60181;53.258;6.932;2023-05-16T18:15:14;7.60;;;3.80;;
65658;SDS011;60181;53.258;6.932;2023-05-16T18:19:18;9.00;;;4.20;;
65658;SDS011;60181;53.258;6.932;2023-05-16T18:23:22;9.00;;;4.20;;
65658;SDS011;60181;53.258;6.932;2023-05-16T18:27:26;7.80;;;4.00;;
65658;SDS011;60181;53.258;6.932;2023-05-16T18:31:30;7.80;;;4.00;;
65658;SDS011;60181;53.258;6.932;2023-05-16T18:35:34;7.80;;;4.00;;
65658;SDS011;60181;53.258;6.932;2023-05-16T18:39:38;13.40;;;4.10;;
65658;SDS011;60181;53.258;6.932;2023-05-16T18:43:42;13.40;;;4.10;;
65658;SDS011;60181;53.258;6.932;2023-05-16T18:47:46;10.50;;;4.10;;
65658;SDS011;60181;53.258;6.932;2023-05-16T18:51:50;10.50;;;4.10;;
65658;SDS011;60181;53.258;6.932;2023-05-16T18:55:54;10.50;;;4.10;;
65658;SDS011;60181;53.258;6.932;2023-05-16T18:59:58;9.70;;;4.20;;
65658;SDS011;60181;53.258;6.932;2023-05-16T19:04:02;9.70;;;4.20;;
65658;SDS011;60181;53.258;6.932;2023-05-16T19:08:06;9.90;;;4.20;;
65658;SDS011;60181;53.258;6.932;2023-05-16T19:12:10;9.90;;;4.20;;
65658;SDS011;60181;53.258;6.932;2023-05-16T19:16:14;9.90;;;4.20;;
65658;SDS011;60181;53.258;6.932;2023-05-16T19:20:18;10.30;;;4.40;;
65658;SDS011;60181;53.258;6.932;2023-05-16T19:24:22;10.30;;;4.40;;
65658;SDS011;60181;53.258;6.932;2023-05-16T19:28:26;9.40;;;4.20;;
65658;SDS011;60181;53.258;6.932;2023-05-16T19:32:30;9.40;;;4.20;;
65658;SDS011;60181;53.258;6.932;2023-05-16T19:36:34;9.40;;;4.20;;
65658;SDS011;60181;53.258;6.932;2023-05-16T19:40:38;8.50;;;4.00;;
65658;SDS011;60181;53.258;6.932;2023-05-16T19:44:42;8.50;;;4.00;;
65658;SDS011;60181;53.258;6.932;2023-05-16T19:48:46;8.70;;;4.20;;
65658;SDS011;60181;53.258;6.932;2023-05-16T19:52:50;8.70;;;4.20;;
65658;SDS011;60181;53.258;6.932;2023-05-16T19:56:54;8.70;;;4.20;;
65658;SDS011;60181;53.258;6.932;2023-05-16T20:00:58;8.10;;;3.90;;
65658;SDS011;60181;53.258;6.932;2023-05-16T20:05:02;8.10;;;3.90;;
65658;SDS011;60181;53.258;6.932;2023-05-16T20:09:06;9.20;;;4.10;;
65658;SDS011;60181;53.258;6.932;2023-05-16T20:13:10;9.20;;;4.10;;
65658;SDS011;60181;53.258;6.932;2023-05-16T20:17:14;9.20;;;4.10;;
65658;SDS011;60181;53.258;6.932;2023-05-16T20:21:18;8.70;;;4.10;;
65658;SDS011;60181;53.258;6.932;2023-05-16T20:25:22;8.70;;;4.10;;
65658;SDS011;60181;53.258;6.932;2023-05-16T20:29:26;8.80;;;4.00;;
65658;SDS011;60181;53.258;6.932;2023-05-16T20:33:30;8.80;;;4.00;;
65658;SDS011;60181;53.258;6.932;2023-05-16T20:37:34;10.10;;;4.30;;
65658;SDS011;60181;53.258;6.932;2023-05-16T20:41:38;10.10;;;4.30;;
65658;SDS011;60181;53.258;6.932;2023-05-16T20:45:42;10.10;;;4.30;;
65658;SDS011;60181;53.258;6.932;2023-05-16T20:49:46;9.20;;;4.00;;
65658;SDS011;60181;53.258;6.932;2023-05-16T20:53:50;9.20;;;4.00;;
65658;SDS011;60181;53.258;6.932;2023-05-16T20:57:54;11.90;;;4.20;;
65658;SDS011;60181;53.258;6.932;2023-05-16T21:01:58;11.90;;;4.20;;
65658;SDS011;60181;53.258;6.932;2023-05-16T21:06:02;11.90;;;4.20;;
65658;SDS011;60181;53.258;6.932;2023-05-16T21:10:06;18.50;;;4.30;;
65658;SDS011;60181;53.258;6.932;2023-05-16T21:14:10;18.50;;;4.30;;
65658;SDS011;60181;53.258;6.932;2023-05-16T21:18:14;13.90;;;4.00;;
65658;SDS011;60181;53.258;6.932;2023-05-16T21:22:18;13.90;;;4.00;;
65658;SDS011;60181;53.258;6.932;2023-05-16T21:26:22;13.90;;;4.00;;
65658;SDS011;60181;53.258;6.932;2023-05-16T21:30:26;16.50;;;4.00;;
65658;SDS011;60181;53.258;6.932;2023-05-16T21:34:30;16.50;;;4.00;;
65658;SDS011;60181;53.258;6.932;2023-05-16T21:38:34;16.50;;;4.30;;
65658;SDS011;60181;53.258;6.932;2023-05-16T21:42:38;16.50;;;4.30;;
65658;SDS011;60181;53.258;6.932;2023-05-16T21:46:42;16.50;;;4.30;;
65658;SDS011;60181;53.258;6.932;2023-05-16T21:50:46;20.60;;;4.50;;
65658;SDS011;60181;53.258;6.932;2023-05-16T21:54:50;20.60;;;4.50;;
65658;SDS011;60181;53.258;6.932;2023-05-16T21:58:54;23.50;;;4.40;;
65658;SDS011;60181;53.258;6.932;2023-05-16T22:02:58;23.50;;;4.40;;
65658;SDS011;60181;53.258;6.932;2023-05-16T22:07:02;23.50;;;4.40;;
65658;SDS011;60181;53.258;6.932;2023-05-16T22:11:06;25.80;;;4.60;;
65658;SDS011;60181;53.258;6.932;2023-05-16T22:15:10;25.80;;;4.60;;
65658;SDS011;60181;53.258;6.932;2023-05-16T22:19:14;19.20;;;4.30;;
65658;SDS011;60181;53.258;6.932;2023-05-16T22:23:18;19.20;;;4.30;;
65658;SDS011;60181;53.258;6.932;2023-05-16T22:27:22;19.20;;;4.30;;
65658;SDS011;60181;53.258;6.932;2023-05-16T22:31:26;21.80;;;4.60;;
65658;SDS011;60181;53.258;6.932;2023-05-16T22:35:29;21.80;;;4.60;;
65658;SDS011;60181;53.258;6.932;2023-05-16T22:39:33;20.00;;;4.20;;
65658;SDS011;60181;53.258;6.932;2023-05-16T22:43:37;20.00;;;4.20;;
65658;SDS011;60181;53.258;6.932;2023-05-16T22:47:41;18.40;;;4.10;;
65658;SDS011;60181;53.258;6.932;2023-05-16T22:51:45;18.40;;;4.10;;
65658;SDS011;60181;53.258;6.932;2023-05-16T22:55:49;18.40;;;4.10;;
65658;SDS011;60181;53.258;6.932;2023-05-16T22:59:53;20.80;;;3.80;;
65658;SDS011;60181;53.258;6.932;2023-05-16T23:03:57;20.80;;;3.80;;
65658;SDS011;60181;53.258;6.932;2023-05-16T23:08:01;21.60;;;3.80;;
65658;SDS011;60181;53.258;6.932;2023-05-16T23:12:06;21.60;;;3.80;;
65658;SDS011;60181;53.258;6.932;2023-05-16T23:16:09;21.60;;;3.80;;
65658;SDS011;60181;53.258;6.932;2023-05-16T23:20:13;19.80;;;3.50;;
65658;SDS011;60181;53.258;6.932;2023-05-16T23:24:17;19.80;;;3.50;;
65658;SDS011;60181;53.258;6.932;2023-05-16T23:28:21;17.70;;;3.50;;
65658;SDS011;60181;53.258;6.932;2023-05-16T23:32:25;17.70;;;3.50;;
65658;SDS011;60181;53.258;6.932;2023-05-16T23:36:29;17.70;;;3.50;;
65658;SDS011;60181;53.258;6.932;2023-05-16T23:40:33;21.90;;;3.80;;
65658;SDS011;60181;53.258;6.932;2023-05-16T23:44:37;21.90;;;3.80;;
65658;SDS011;60181;53.258;6.932;2023-05-16T23:48:41;20.00;;;3.30;;
65658;SDS011;60181;53.258;6.932;2023-05-16T23:52:45;20.00;;;3.30;;
65658;SDS011;60181;53.258;6.932;2023-05-16T23:56:49;20.00;;;3.30;;
